createdAt,value
2023-05-25T00:02:01.540Z,101719.94
2023-05-25T00:04:33.502Z,101724.63
2023-05-25T00:07:05.104Z,101724.19
2023-05-25T00:09:36.638Z,101720.06
2023-05-25T00:12:08.133Z,101718.41
2023-05-25T00:14:39.646Z,101719.44
2023-05-25T00:17:11.227Z,101716.31
2023-05-25T00:19:43.088Z,101717.34
2023-05-25T00:22:14.595Z,101714.22
2023-05-25T00:24:46.428Z,101714.59
2023-05-25T00:27:17.905Z,101714.34
2023-05-25T00:29:49.957Z,101720.50
2023-05-25T00:32:21.862Z,101717.84
2023-05-25T00:34:53.392Z,101719.00
2023-05-25T00:37:25.358Z,101717.72
2023-05-25T00:39:56.855Z,101723.22
2023-05-25T00:42:28.691Z,101716.63
2023-05-25T00:45:00.176Z,101718.84
2023-05-25T00:47:32.083Z,101717.75
2023-05-25T00:50:03.605Z,101719.97
2023-05-25T00:52:35.221Z,101594.47
2023-05-25T00:55:06.712Z,101714.00
2023-05-25T00:57:38.433Z,101722.19
2023-05-25T01:00:10.255Z,101720.72
2023-05-25T01:02:42.134Z,101720.06
2023-05-25T01:05:14.049Z,101720.63
2023-05-25T01:07:45.561Z,101726.47
2023-05-25T01:10:17.534Z,101718.22
2023-05-25T01:12:49.034Z,101718.31
2023-05-25T01:15:20.832Z,101713.38
2023-05-25T01:17:52.447Z,101719.06
2023-05-25T01:20:24.201Z,101713.94
2023-05-25T01:22:55.739Z,101717.78
2023-05-25T01:25:27.428Z,101717.78
2023-05-25T01:27:58.942Z,101716.13
2023-05-25T01:30:30.704Z,101730.44
2023-05-25T01:33:02.464Z,101723.47
2023-05-25T01:35:34.014Z,101723.47
2023-05-25T01:38:05.684Z,101732.44
2023-05-25T01:40:37.198Z,101726.84
2023-05-25T01:43:09.196Z,101722.41
2023-05-25T01:45:40.721Z,101729.94
2023-05-25T01:48:12.590Z,101735.25
2023-05-25T01:50:44.119Z,101729.94
2023-05-25T01:53:15.990Z,101732.59
2023-05-25T01:55:47.456Z,101727.44
2023-05-25T01:58:19.386Z,101733.31
2023-05-25T02:00:50.923Z,101721.41
2023-05-25T02:03:22.786Z,101726.22
2023-05-25T02:05:54.602Z,101720.06
2023-05-25T02:08:26.088Z,101726.22
2023-05-25T02:10:57.939Z,101721.09
2023-05-25T02:13:29.430Z,101720.81
2023-05-25T02:16:01.008Z,101713.84
2023-05-25T02:18:32.542Z,101715.84
2023-05-25T02:21:04.361Z,101710.03
2023-05-25T02:23:35.860Z,101712.06
2023-05-25T02:26:07.746Z,101711.03
2023-05-25T02:28:39.286Z,101713.53
2023-05-25T02:31:10.809Z,101721.50
2023-05-25T02:33:42.487Z,101724.00
2023-05-25T02:36:14.017Z,101725.97
2023-05-25T02:38:45.690Z,101721.50
2023-05-25T02:41:17.203Z,101722.34
2023-05-25T02:43:49.151Z,101719.50
2023-05-25T02:46:20.684Z,101723.19
2023-05-25T02:48:52.416Z,101724.81
2023-05-25T02:51:23.905Z,101721.16
2023-05-25T02:53:55.740Z,101718.84
2023-05-25T02:56:27.246Z,101725.16
2023-05-25T02:58:59.104Z,101721.84
2023-05-25T03:01:30.691Z,101727.16
2023-05-25T03:04:02.669Z,101725.16
2023-05-25T03:06:34.288Z,101730.47
2023-05-25T03:09:05.826Z,101729.81
2023-05-25T03:11:37.342Z,101722.84
2023-05-25T03:14:08.866Z,101724.22
2023-05-25T03:16:40.434Z,101731.84
2023-05-25T03:19:11.966Z,101729.19
2023-05-25T03:21:43.722Z,101731.47
2023-05-25T03:24:15.219Z,101726.47
2023-05-25T03:26:47.014Z,101730.25
2023-05-25T03:29:18.494Z,101729.38
2023-05-25T03:31:50.360Z,101737.44
2023-05-25T03:34:22.098Z,101736.53
2023-05-25T03:36:53.605Z,101745.28
2023-05-25T03:39:25.426Z,101741.69
2023-05-25T03:41:57.154Z,101736.28
2023-05-25T03:44:28.631Z,101747.66
2023-05-25T03:47:00.155Z,101747.56
2023-05-25T03:49:31.652Z,101748.69
2023-05-25T03:52:03.431Z,101749.22
2023-05-25T03:54:34.936Z,101749.50
2023-05-25T03:57:06.473Z,101751.59
2023-05-25T03:59:38.028Z,101752.69
2023-05-25T04:02:09.768Z,101758.38
2023-05-25T04:04:41.318Z,101750.28
2023-05-25T04:07:13.031Z,101760.25
2023-05-25T04:09:44.516Z,101753.63
2023-05-25T04:12:16.300Z,101753.59
2023-05-25T04:14:47.791Z,101760.00
2023-05-25T04:17:19.623Z,101765.00
2023-05-25T04:19:51.160Z,101754.22
2023-05-25T04:22:23.155Z,101760.44
2023-05-25T04:24:54.652Z,101770.22
2023-05-25T04:27:26.412Z,101768.94
2023-05-25T04:29:57.967Z,101775.41
2023-05-25T04:32:30.013Z,101774.88
2023-05-25T04:35:01.622Z,101775.59
2023-05-25T04:37:33.491Z,101770.34
2023-05-25T04:40:05.001Z,101776.78
2023-05-25T04:42:36.665Z,101777.88
2023-05-25T04:45:08.329Z,101784.28
2023-05-25T04:47:39.923Z,101786.00
2023-05-25T04:50:11.498Z,101782.06
2023-05-25T04:52:43.148Z,101781.06
2023-05-25T04:55:14.993Z,101783.63
2023-05-25T04:57:46.487Z,101783.84
2023-05-25T05:00:18.234Z,101785.75
2023-05-25T05:02:49.862Z,101779.63
2023-05-25T05:05:21.822Z,101780.66
2023-05-25T05:07:53.315Z,101779.44
2023-05-25T05:10:24.817Z,101782.75
2023-05-25T05:12:56.318Z,101779.22
2023-05-25T05:15:27.813Z,101787.88
2023-05-25T05:17:59.400Z,101779.19
2023-05-25T05:20:30.975Z,101663.25
2023-05-25T05:23:02.708Z,101779.16
2023-05-25T05:25:34.215Z,101780.59
2023-05-25T05:28:05.733Z,101787.97
2023-05-25T05:30:37.245Z,101787.13
2023-05-25T05:33:09.275Z,101783.22
2023-05-25T05:35:40.865Z,101792.56
2023-05-25T05:38:12.366Z,101801.13
2023-05-25T05:40:43.856Z,101805.16
2023-05-25T05:43:15.664Z,101800.66
2023-05-25T05:45:47.574Z,101796.59
2023-05-25T05:48:19.510Z,101800.19
2023-05-25T05:50:51.084Z,101800.13
2023-05-25T05:53:22.600Z,101802.19
2023-05-25T05:55:56.056Z,101809.00
2023-05-25T05:58:27.958Z,101807.19
2023-05-25T06:00:59.489Z,101806.59
2023-05-25T06:03:31.019Z,101813.63
2023-05-25T06:06:03.055Z,101819.72
2023-05-25T06:08:34.610Z,101822.09
2023-05-25T06:11:06.413Z,101823.75
2023-05-25T06:13:37.902Z,101825.41
2023-05-25T06:16:09.844Z,101826.13
2023-05-25T06:18:41.670Z,101829.31
2023-05-25T06:21:13.338Z,101825.28
2023-05-25T06:23:45.207Z,101821.47
2023-05-25T06:26:16.727Z,101832.44
2023-05-25T06:28:48.590Z,101820.28
2023-05-25T06:31:20.107Z,101827.81
2023-05-25T06:33:51.906Z,101833.44
2023-05-25T06:36:23.465Z,101835.50
2023-05-25T06:38:55.477Z,101842.84
2023-05-25T06:41:26.968Z,101840.69
2023-05-25T06:43:58.514Z,101841.28
2023-05-25T06:46:30.347Z,101831.44
2023-05-25T06:49:01.838Z,101842.03
2023-05-25T06:51:33.533Z,101826.06
2023-05-25T06:54:05.025Z,101835.88
2023-05-25T06:56:36.552Z,101815.00
2023-05-25T06:59:08.067Z,101807.78
2023-05-25T07:01:39.612Z,101815.50
2023-05-25T07:04:11.132Z,101814.97
2023-05-25T07:06:43.132Z,101812.09
2023-05-25T07:09:14.637Z,101806.47
2023-05-25T07:11:46.488Z,101808.59
2023-05-25T07:14:18.002Z,101800.72
2023-05-25T07:16:49.929Z,101803.38
2023-05-25T07:19:21.728Z,101794.31
2023-05-25T07:21:53.213Z,101792.88
2023-05-25T07:24:25.067Z,101766.66
2023-05-25T07:26:56.571Z,101782.84
2023-05-25T07:29:28.078Z,101751.94
2023-05-25T07:31:59.571Z,101763.34
2023-05-25T07:34:31.063Z,101754.19
2023-05-25T07:37:02.552Z,101723.84
2023-05-25T07:39:34.053Z,101746.41
2023-05-25T07:42:05.551Z,101731.09
2023-05-25T07:44:37.062Z,101730.16
2023-05-25T07:47:08.702Z,101735.44
2023-05-25T07:49:40.455Z,101700.16
2023-05-25T07:52:12.241Z,101780.75
2023-05-25T07:54:43.741Z,101730.22
2023-05-25T07:57:15.271Z,101729.50
2023-05-25T07:59:46.774Z,101711.72
2023-05-25T08:02:18.482Z,101702.50
2023-05-25T08:04:50.011Z,101687.56
2023-05-25T08:07:21.598Z,101697.06
2023-05-25T08:09:53.094Z,101652.66
2023-05-25T08:12:38.541Z,101653.63
2023-05-25T08:15:16.543Z,101646.94
2023-05-25T08:17:48.208Z,101685.13
2023-05-25T08:20:20.296Z,101696.78
2023-05-25T08:22:51.846Z,101700.31
2023-05-25T08:25:23.646Z,101702.22
2023-05-25T08:27:55.157Z,101673.69
2023-05-25T08:30:26.919Z,101725.88
2023-05-25T08:32:58.424Z,101749.94
2023-05-25T08:35:31.179Z,101753.69
2023-05-25T08:38:02.676Z,101726.16
2023-05-25T08:40:34.200Z,101707.41
2023-05-25T08:43:05.857Z,101705.44
2023-05-25T08:45:39.576Z,101732.34
2023-05-25T08:48:23.986Z,101765.66
2023-05-25T08:50:58.752Z,101757.09
2023-05-25T08:53:30.623Z,101726.59
2023-05-25T08:56:02.130Z,101697.88
2023-05-25T08:58:33.861Z,101694.03
2023-05-25T09:01:05.338Z,101711.97
2023-05-25T09:03:36.979Z,101677.25
2023-05-25T09:06:08.919Z,101674.75
2023-05-25T09:08:40.471Z,101668.38
2023-05-25T09:11:16.275Z,101688.09
2023-05-25T09:13:48.507Z,101698.03
2023-05-25T09:16:20.392Z,101716.16
2023-05-25T09:18:51.946Z,101681.78
2023-05-25T09:21:23.777Z,101660.72
2023-05-25T09:23:55.283Z,101692.91
2023-05-25T09:26:26.988Z,101642.09
2023-05-25T09:28:58.505Z,101657.78
2023-05-25T09:31:30.406Z,101667.16
2023-05-25T09:34:01.924Z,101640.66
2023-05-25T09:36:33.559Z,101602.78
2023-05-25T09:39:05.498Z,101600.06
2023-05-25T09:41:37.113Z,101544.38
2023-05-25T09:44:11.745Z,101546.31
2023-05-25T09:46:43.630Z,101562.69
2023-05-25T09:49:15.471Z,101603.47
2023-05-25T09:51:46.979Z,101660.16
2023-05-25T09:54:18.874Z,101675.16
2023-05-25T09:56:50.367Z,101678.22
2023-05-25T09:59:22.045Z,101719.09
2023-05-25T10:01:53.799Z,101765.19
2023-05-25T10:04:25.875Z,101715.16
2023-05-25T10:06:57.698Z,101705.94
2023-05-25T10:09:29.589Z,101687.88
2023-05-25T10:12:01.375Z,101645.41
2023-05-25T10:14:33.103Z,101655.47
2023-05-25T10:17:04.616Z,101632.19
2023-05-25T10:19:36.103Z,101675.06
2023-05-25T10:22:07.918Z,101715.16
2023-05-25T10:24:39.511Z,101725.78
2023-05-25T10:27:25.280Z,101742.69
2023-05-25T10:29:58.295Z,101713.28
2023-05-25T10:32:30.227Z,101672.16
2023-05-25T10:35:02.257Z,101643.03
2023-05-25T10:37:33.767Z,101634.78
2023-05-25T10:40:05.633Z,101644.31
2023-05-25T10:42:37.137Z,101648.00
2023-05-25T10:45:08.867Z,101641.59
2023-05-25T10:47:40.363Z,101604.16
2023-05-25T10:50:11.912Z,101622.69
2023-05-25T10:52:43.405Z,101637.03
2023-05-25T10:55:15.223Z,101598.38
2023-05-25T10:57:46.760Z,101653.72
2023-05-25T11:00:18.682Z,101660.06
2023-05-25T11:02:50.244Z,101661.91
2023-05-25T11:05:21.795Z,101656.19
2023-05-25T11:07:53.844Z,101613.38
2023-05-25T11:10:25.324Z,101596.31
2023-05-25T11:12:57.163Z,101586.28
2023-05-25T11:15:28.650Z,101572.59
2023-05-25T11:18:00.654Z,101534.94
2023-05-25T11:20:32.283Z,101536.25
2023-05-25T11:23:04.115Z,101527.59
2023-05-25T11:25:36.836Z,101501.06
2023-05-25T11:28:09.054Z,101513.53
2023-05-25T11:30:40.560Z,101539.50
2023-05-25T11:33:12.152Z,101530.78
2023-05-25T11:35:43.811Z,101533.69
2023-05-25T11:38:15.795Z,101570.09
2023-05-25T11:40:47.732Z,101609.41
2023-05-25T11:43:19.247Z,101563.75
2023-05-25T11:45:51.055Z,101571.13
2023-05-25T11:48:22.941Z,101611.63
2023-05-25T11:50:54.457Z,101621.66
2023-05-25T11:53:26.151Z,101635.69
2023-05-25T11:56:03.751Z,101592.78
2023-05-25T11:58:39.325Z,101630.34
2023-05-25T12:01:10.822Z,101632.63
2023-05-25T12:03:42.691Z,101627.06
2023-05-25T12:06:14.262Z,101632.13
2023-05-25T12:08:46.151Z,101643.69
2023-05-25T12:11:17.641Z,101651.22
2023-05-25T12:13:49.157Z,101616.59
2023-05-25T12:16:20.645Z,101598.63
2023-05-25T12:18:52.492Z,101564.63
2023-05-25T12:21:24.019Z,101605.59
2023-05-25T12:23:55.506Z,101633.25
2023-05-25T12:26:27.334Z,101648.16
2023-05-25T12:28:58.816Z,101643.34
2023-05-25T12:31:30.703Z,101617.97
2023-05-25T12:34:03.203Z,101638.50
2023-05-25T12:36:34.800Z,101679.38
2023-05-25T12:39:06.282Z,101696.00
2023-05-25T12:41:37.787Z,101695.31
2023-05-25T12:44:09.272Z,101687.56
2023-05-25T12:46:40.957Z,101639.44
2023-05-25T12:49:12.729Z,101627.69
2023-05-25T12:51:44.262Z,101639.53
2023-05-25T12:54:15.824Z,101587.81
2023-05-25T12:56:47.976Z,101582.69
2023-05-25T12:59:20.605Z,101591.88
2023-05-25T13:01:52.160Z,101577.41
2023-05-25T13:04:24.090Z,101572.16
2023-05-25T13:06:55.630Z,101549.06
2023-05-25T13:09:27.619Z,101602.66
2023-05-25T13:11:59.104Z,101614.22
2023-05-25T13:14:31.018Z,101584.53
2023-05-25T13:17:02.779Z,101548.31
2023-05-25T13:19:34.287Z,101530.47
2023-05-25T13:22:06.115Z,101539.53
2023-05-25T13:24:37.614Z,101561.28
2023-05-25T13:27:09.487Z,101599.63
2023-05-25T13:29:40.973Z,101589.53
2023-05-25T13:32:12.889Z,101581.34
2023-05-25T13:34:44.461Z,101567.41
2023-05-25T13:37:16.286Z,101436.00
2023-05-25T13:39:47.758Z,101553.03
2023-05-25T13:42:19.611Z,101559.88
2023-05-25T13:44:51.389Z,101574.34
2023-05-25T13:47:23.274Z,101614.00
2023-05-25T13:49:54.830Z,101606.06
2023-05-25T13:52:26.311Z,101673.00
2023-05-25T13:54:58.220Z,101688.44
2023-05-25T13:57:29.706Z,101689.91
2023-05-25T14:00:01.383Z,101650.56
2023-05-25T14:02:33.085Z,101608.88
2023-05-25T14:05:04.617Z,101596.44
2023-05-25T14:07:36.129Z,101587.28
2023-05-25T14:10:09.711Z,101594.25
2023-05-25T14:12:41.549Z,101568.25
2023-05-25T14:15:13.363Z,101616.25
2023-05-25T14:17:45.066Z,101608.16
2023-05-25T14:20:16.582Z,101581.44
2023-05-25T14:22:48.328Z,101597.31
2023-05-25T14:25:19.812Z,101625.03
2023-05-25T14:27:51.536Z,101664.78
2023-05-25T14:30:23.024Z,101688.91
2023-05-25T14:32:54.749Z,101709.81
2023-05-25T14:35:26.293Z,101678.47
2023-05-25T14:37:58.121Z,101661.47
2023-05-25T14:40:29.614Z,101637.59
2023-05-25T14:43:01.091Z,101607.72
2023-05-25T14:45:32.888Z,101578.09
2023-05-25T14:48:15.987Z,101568.16
2023-05-25T14:50:48.614Z,101568.84
2023-05-25T14:53:20.090Z,101579.09
2023-05-25T14:55:51.895Z,101596.56
2023-05-25T14:58:23.382Z,101573.72
2023-05-25T15:00:55.429Z,101576.94
2023-05-25T15:03:27.071Z,101587.47
2023-05-25T15:05:58.907Z,101579.19
2023-05-25T15:08:30.477Z,101551.66
2023-05-25T15:11:02.208Z,101551.84
2023-05-25T15:13:33.740Z,101535.16
2023-05-25T15:16:05.657Z,101508.63
2023-05-25T15:18:37.230Z,101519.28
2023-05-25T15:21:08.776Z,101525.53
2023-05-25T15:23:40.323Z,101523.53
2023-05-25T15:26:11.862Z,101530.78
2023-05-25T15:28:43.624Z,101527.56
2023-05-25T15:31:15.145Z,101539.63
2023-05-25T15:33:54.274Z,101545.34
2023-05-25T15:36:30.339Z,101572.97
2023-05-25T15:39:02.234Z,101530.41
2023-05-25T15:41:33.779Z,101523.00
2023-05-25T15:44:05.366Z,101519.47
2023-05-25T15:46:36.965Z,101537.47
2023-05-25T15:49:08.650Z,101510.25
2023-05-25T15:51:40.208Z,101534.94
2023-05-25T15:54:14.385Z,101565.06
2023-05-25T15:56:46.632Z,101546.19
2023-05-25T15:59:18.150Z,101580.94
2023-05-25T16:01:50.181Z,101621.56
2023-05-25T16:04:21.903Z,101620.00
2023-05-25T16:06:53.880Z,101602.00
2023-05-25T16:09:25.651Z,101571.66
2023-05-25T16:11:57.307Z,101591.34
2023-05-25T16:14:29.321Z,101581.88
2023-05-25T16:17:00.850Z,101588.97
2023-05-25T16:19:32.736Z,101603.22
2023-05-25T16:22:04.361Z,101637.94
2023-05-25T16:24:35.925Z,101656.84
2023-05-25T16:27:07.481Z,101656.50
2023-05-25T16:29:39.033Z,101669.88
2023-05-25T16:32:10.682Z,101676.72
2023-05-25T16:34:42.681Z,101675.13
2023-05-25T16:37:14.231Z,101679.97
2023-05-25T16:39:45.994Z,101685.66
2023-05-25T16:42:19.784Z,101697.34
2023-05-25T16:44:51.303Z,101721.97
2023-05-25T16:47:22.977Z,101721.16
2023-05-25T16:49:54.595Z,101729.28
2023-05-25T16:52:26.176Z,101721.59
2023-05-25T16:54:57.740Z,101725.78
2023-05-25T16:57:29.291Z,101729.53
2023-05-25T17:00:00.801Z,101718.53
2023-05-25T17:02:32.850Z,101731.16
2023-05-25T17:05:04.451Z,101625.06
2023-05-25T17:07:36.078Z,101729.75
2023-05-25T17:10:08.015Z,101741.38
2023-05-25T17:12:39.559Z,101747.59
2023-05-25T17:15:11.060Z,101738.63
2023-05-25T17:17:42.568Z,101746.28
2023-05-25T17:20:14.360Z,101751.00
2023-05-25T17:22:45.861Z,101765.34
2023-05-25T17:25:17.886Z,101776.13
2023-05-25T17:27:49.388Z,101774.06
2023-05-25T17:30:21.385Z,101762.78
2023-05-25T17:32:53.127Z,101775.84
2023-05-25T17:35:24.988Z,101782.69
2023-05-25T17:37:56.567Z,101786.31
2023-05-25T17:40:28.183Z,101781.38
2023-05-25T17:42:59.988Z,101791.00
2023-05-25T17:45:31.532Z,101792.19
2023-05-25T17:48:03.685Z,101792.00
2023-05-25T17:50:35.246Z,101798.69
2023-05-25T17:53:07.075Z,101791.69
2023-05-25T17:55:38.725Z,101797.72
2023-05-25T17:58:10.608Z,101793.63
2023-05-25T18:00:42.172Z,101791.22
2023-05-25T18:03:14.095Z,101810.47
2023-05-25T18:05:45.799Z,101814.50
2023-05-25T18:08:17.663Z,101816.88
2023-05-25T18:10:49.336Z,101818.13
2023-05-25T18:13:20.832Z,101824.44
2023-05-25T18:15:52.957Z,101832.81
2023-05-25T18:18:24.452Z,101822.41
2023-05-25T18:20:56.051Z,101720.28
2023-05-25T18:23:27.548Z,101824.25
2023-05-25T18:25:59.597Z,101836.53
2023-05-25T18:28:31.519Z,101830.81
2023-05-25T18:31:03.508Z,101825.97
2023-05-25T18:33:35.037Z,101826.56
2023-05-25T18:36:06.745Z,101824.59
2023-05-25T18:38:38.265Z,101832.84
2023-05-25T18:41:10.102Z,101816.69
2023-05-25T18:43:41.988Z,101827.16
2023-05-25T18:46:13.573Z,101822.97
2023-05-25T18:48:45.241Z,101817.97
2023-05-25T18:51:16.728Z,101816.13
2023-05-25T18:53:48.588Z,101816.41
2023-05-25T18:56:20.098Z,101813.38
2023-05-25T18:58:51.860Z,101817.97
2023-05-25T19:01:23.472Z,101806.16
2023-05-25T19:03:58.095Z,101812.97
2023-05-25T19:06:30.136Z,101815.00
2023-05-25T19:09:02.021Z,101810.31
2023-05-25T19:11:33.551Z,101811.72
2023-05-25T19:14:05.102Z,101810.53
2023-05-25T19:16:36.688Z,101816.88
2023-05-25T19:19:08.224Z,101815.38
2023-05-25T19:21:39.770Z,101807.88
2023-05-25T19:24:11.407Z,101816.09
2023-05-25T19:26:43.282Z,101813.47
2023-05-25T19:29:14.822Z,101812.50
2023-05-25T19:31:46.745Z,101827.50
2023-05-25T19:34:18.287Z,101826.78
2023-05-25T19:36:59.621Z,101820.69
2023-05-25T19:39:33.231Z,101819.53
2023-05-25T19:42:04.747Z,101815.03
2023-05-25T19:44:36.252Z,101821.13
2023-05-25T19:47:07.771Z,101815.84
2023-05-25T19:49:39.297Z,101824.84
2023-05-25T19:52:10.869Z,101824.25
2023-05-25T19:54:42.729Z,101824.81
2023-05-25T19:57:14.345Z,101828.19
2023-05-25T19:59:46.287Z,101828.03
2023-05-25T20:02:18.086Z,101831.06
2023-05-25T20:04:49.592Z,101829.41
2023-05-25T20:07:21.083Z,101832.19
2023-05-25T20:09:52.991Z,101832.41
2023-05-25T20:12:24.859Z,101828.78
2023-05-25T20:14:56.418Z,101825.94
2023-05-25T20:17:27.922Z,101839.63
2023-05-25T20:19:59.476Z,101842.75
2023-05-25T20:22:31.204Z,101844.22
2023-05-25T20:25:02.716Z,101841.59
2023-05-25T20:27:34.200Z,101838.78
2023-05-25T20:30:05.749Z,101841.31
2023-05-25T20:32:37.332Z,101847.59
2023-05-25T20:35:08.884Z,101852.22
2023-05-25T20:37:40.398Z,101857.25
2023-05-25T20:40:12.205Z,101859.56
2023-05-25T20:42:43.931Z,101854.06
2023-05-25T20:45:15.496Z,101858.59
2023-05-25T20:47:47.007Z,101859.03
2023-05-25T20:50:18.982Z,101858.66
2023-05-25T20:52:50.515Z,101862.41
2023-05-25T20:55:22.019Z,101862.84
2023-05-25T20:57:53.583Z,101863.13
2023-05-25T21:00:25.582Z,101855.31
2023-05-25T21:02:57.198Z,101857.56
2023-05-25T21:05:29.083Z,101862.19
2023-05-25T21:08:00.879Z,101857.91
2023-05-25T21:10:32.436Z,101859.63
2023-05-25T21:13:04.249Z,101861.72
2023-05-25T21:15:35.793Z,101862.59
2023-05-25T21:18:07.670Z,101859.31
2023-05-25T21:20:39.265Z,101864.31
2023-05-25T21:23:11.116Z,101869.13
2023-05-25T21:25:42.691Z,101864.38
2023-05-25T21:28:14.568Z,101862.56
2023-05-25T21:30:46.076Z,101864.63
2023-05-25T21:33:17.629Z,101860.31
2023-05-25T21:35:49.171Z,101866.94
2023-05-25T21:38:21.283Z,101866.56
2023-05-25T21:40:52.814Z,101872.34
2023-05-25T21:43:24.477Z,101867.00
2023-05-25T21:45:56.271Z,101870.50
2023-05-25T21:48:27.779Z,101868.63
2023-05-25T21:50:59.684Z,101865.34
2023-05-25T21:53:31.175Z,101873.19
2023-05-25T21:56:02.967Z,101878.16
2023-05-25T21:58:34.494Z,101876.50
2023-05-25T22:01:06.687Z,101879.41
2023-05-25T22:03:38.277Z,101871.78
2023-05-25T22:06:10.290Z,101880.88
2023-05-25T22:08:42.115Z,101887.25
2023-05-25T22:11:13.887Z,101894.31
2023-05-25T22:13:45.529Z,101895.97
2023-05-25T22:16:17.051Z,101895.38
2023-05-25T22:18:48.898Z,101900.75
2023-05-25T22:21:20.475Z,101905.50
2023-05-25T22:23:52.289Z,101899.31
2023-05-25T22:26:23.824Z,101910.63
2023-05-25T22:28:55.645Z,101899.69
2023-05-25T22:31:27.297Z,101904.63
2023-05-25T22:33:59.083Z,101902.78
2023-05-25T22:36:30.570Z,101902.78
2023-05-25T22:39:02.316Z,101906.06
2023-05-25T22:41:33.844Z,101908.53
2023-05-25T22:44:05.341Z,101905.03
2023-05-25T22:46:36.904Z,101905.63
2023-05-25T22:49:08.438Z,101911.22
2023-05-25T22:51:39.964Z,101912.03
2023-05-25T22:54:11.478Z,101901.75
2023-05-25T22:56:43.385Z,101901.34
2023-05-25T22:59:14.861Z,101913.75
2023-05-25T23:01:46.459Z,101917.06
2023-05-25T23:04:18.063Z,101906.94
2023-05-25T23:06:49.856Z,101909.22
2023-05-25T23:09:21.645Z,101916.06
2023-05-25T23:11:53.305Z,101917.94
2023-05-25T23:14:25.014Z,101915.06
2023-05-25T23:16:56.533Z,101918.78
2023-05-25T23:19:28.340Z,101917.94
2023-05-25T23:21:59.842Z,101918.59
2023-05-25T23:24:31.771Z,101911.56
2023-05-25T23:27:03.273Z,101908.91
2023-05-25T23:29:34.789Z,101911.78
2023-05-25T23:32:06.342Z,101910.34
2023-05-25T23:34:37.932Z,101912.59
2023-05-25T23:37:09.439Z,101913.41
2023-05-25T23:39:40.926Z,101910.13
2023-05-25T23:42:12.935Z,101908.09
2023-05-25T23:44:44.747Z,101918.19
2023-05-25T23:47:16.439Z,101917.78
2023-05-25T23:49:47.937Z,101913.66
2023-05-25T23:52:19.697Z,101917.59
2023-05-25T23:54:51.193Z,101921.28
2023-05-25T23:57:23.028Z,101909.72
2023-05-25T23:59:54.605Z,101913.44
